SMA33 VNLK-VNRT
Flight info
| Callsign | SMA33 |
|---|---|
| Flight time | 0h 13m |
| Altitude | 13500 |
| Route | DCT |
| Aircraft | L410/M-SDFGRWY/S |
Departure
| Time | 2026-01-11 04:20 |
|---|---|
| Airport | Tenzing-Hillary Airport (VNLK) |
Arrival
| Time | 2026-01-11 04:33 |
|---|---|
| Airport | Rumjatar Airport (VNRT) |
| Time | Latitude | Longitude | Altitude | Speed | Heading |
|---|---|---|---|---|---|
| 2026-01-11 04:13 | 27.68753 | 86.72907 | 9212 ft | 0 kts | 47° |
| 2026-01-11 04:17 | 27.68781 | 86.72910 | 9214 ft | 6 kts | 356° |
| 2026-01-11 04:18 | 27.68796 | 86.72897 | 9215 ft | 0 kts | 219° |
| 2026-01-11 04:18 | 27.68130 | 86.72128 | 9272 ft | 100 kts | 223° |
| 2026-01-11 04:19 | 27.67041 | 86.71089 | 9733 ft | 121 kts | 218° |
| 2026-01-11 04:19 | 27.65224 | 86.70276 | 9619 ft | 168 kts | 200° |
| 2026-01-11 04:20 | 27.62993 | 86.69345 | 10196 ft | 166 kts | 200° |
| 2026-01-11 04:20 | 27.61327 | 86.68655 | 10693 ft | 165 kts | 200° |
| 2026-01-11 04:21 | 27.59352 | 86.67831 | 11227 ft | 166 kts | 200° |
| 2026-01-11 04:21 | 27.58259 | 86.67375 | 11505 ft | 166 kts | 200° |
| 2026-01-11 04:22 | 27.56096 | 86.66475 | 12035 ft | 168 kts | 200° |
| 2026-01-11 04:22 | 27.53886 | 86.65558 | 12532 ft | 170 kts | 200° |
| 2026-01-11 04:23 | 27.51657 | 86.64640 | 13003 ft | 172 kts | 200° |
| 2026-01-11 04:23 | 27.49402 | 86.63719 | 13452 ft | 174 kts | 200° |
| 2026-01-11 04:24 | 27.47019 | 86.62751 | 13559 ft | 192 kts | 200° |
| 2026-01-11 04:24 | 27.43105 | 86.61157 | 13495 ft | 210 kts | 200° |
| 2026-01-11 04:25 | 27.40294 | 86.60006 | 13000 ft | 216 kts | 200° |
| 2026-01-11 04:25 | 27.38913 | 86.59437 | 12709 ft | 210 kts | 200° |
| 2026-01-11 04:26 | 27.36245 | 86.58926 | 11939 ft | 191 kts | 171° |
| 2026-01-11 04:26 | 27.33719 | 86.59375 | 11191 ft | 180 kts | 171° |
| 2026-01-11 04:27 | 27.31489 | 86.60289 | 10427 ft | 172 kts | 125° |
| 2026-01-11 04:27 | 27.31757 | 86.62614 | 9675 ft | 163 kts | 37° |
| 2026-01-11 04:28 | 27.33773 | 86.62593 | 9039 ft | 152 kts | 330° |
| 2026-01-11 04:29 | 27.33266 | 86.59120 | 7848 ft | 107 kts | 251° |
| 2026-01-11 04:29 | 27.32999 | 86.58322 | 7393 ft | 110 kts | 251° |
| 2026-01-11 04:29 | 27.32644 | 86.57276 | 6795 ft | 109 kts | 249° |
| 2026-01-11 04:30 | 27.32131 | 86.55798 | 6224 ft | 79 kts | 251° |
| 2026-01-11 04:30 | 27.31157 | 86.54947 | 5702 ft | 101 kts | 202° |
| 2026-01-11 04:31 | 27.29839 | 86.54441 | 5237 ft | 98 kts | 194° |
| 2026-01-11 04:31 | 27.29192 | 86.54312 | 5093 ft | 91 kts | 185° |
| 2026-01-11 04:32 | 27.28229 | 86.54922 | 4746 ft | 85 kts | 82° |
| 2026-01-11 04:32 | 27.29703 | 86.55164 | 4461 ft | 78 kts | 357° |
| 2026-01-11 04:33 | 27.30449 | 86.55073 | 4467 ft | 9 kts | 328° |
| 2026-01-11 04:33 | 27.30381 | 86.55068 | 4468 ft | 1 kts | 178° |
| 2026-01-11 04:34 | 27.30337 | 86.55065 | 4469 ft | 0 kts | 213° |
| 2026-01-11 04:37 | 27.30340 | 86.55067 | 4468 ft | 3 kts | 223° |
| 2026-01-11 04:37 | 27.30398 | 86.55058 | 4468 ft | 9 kts | 4° |
| 2026-01-11 04:38 | 27.30208 | 86.55100 | 4466 ft | 63 kts | 172° |
| 2026-01-11 04:38 | 27.28799 | 86.55360 | 4890 ft | 112 kts | 161° |
| 2026-01-11 04:39 | 27.27258 | 86.56036 | 5380 ft | 150 kts | 156° |
| 2026-01-11 04:39 | 27.25111 | 86.56713 | 5926 ft | 167 kts | 195° |
| 2026-01-11 04:40 | 27.24319 | 86.55901 | 6106 ft | 151 kts | 254° |
| 2026-01-11 04:40 | 27.25884 | 86.55225 | 6164 ft | 93 kts | 9° |
| 2026-01-11 04:41 | 27.27187 | 86.55302 | 5967 ft | 95 kts | 360° |
| 2026-01-11 04:41 | 27.28506 | 86.55239 | 5302 ft | 96 kts | 358° |
| 2026-01-11 04:42 | 27.29806 | 86.55154 | 4619 ft | 89 kts | 355° |